Time;durP1;ratioP1;P1;durP2;ratioP2;P2;SDS_P1;SDS_P2;PMS_P1;PMS_P2;Temp;Humidity;BMP_temperature;BMP_pressure;BME280_temperature;BME280_humidity;BME280_pressure;Samples;Min_cycle;Max_cycle;Signal;HPM_P1;HPM_P2
2023/05/03 00:00:47;;;;;;;2.20;0.90;;;8.60;99.90;;;;;;5017057;28;20055;-79
2023/05/03 00:03:13;;;;;;;3.47;0.65;;;8.60;99.90;;;;;;5016998;28;20018;-79
2023/05/03 00:05:39;;;;;;;1.70;0.63;;;8.60;99.90;;;;;;5015985;28;20482;-79
2023/05/03 00:08:04;;;;;;;2.20;0.70;;;8.60;99.90;;;;;;5017011;28;20044;-81
2023/05/03 00:10:30;;;;;;;1.83;0.70;;;8.50;99.90;;;;;;5016954;28;20045;-81
2023/05/03 00:12:56;;;;;;;1.95;0.88;;;8.50;99.90;;;;;;5016951;28;20368;-80
2023/05/03 00:15:21;;;;;;;1.58;0.75;;;8.50;99.90;;;;;;5016255;28;22223;-80
2023/05/03 00:17:47;;;;;;;3.00;0.73;;;8.50;99.90;;;;;;5016789;28;20056;-79
2023/05/03 00:20:14;;;;;;;2.22;0.73;;;8.60;99.90;;;;;;5014171;28;20083;-81
2023/05/03 00:22:40;;;;;;;2.78;0.55;;;8.60;99.90;;;;;;5031963;28;20434;-81
2023/05/03 00:25:07;;;;;;;1.02;0.50;;;8.50;99.90;;;;;;5032035;28;20104;-79
2023/05/03 00:27:33;;;;;;;1.92;0.52;;;8.50;99.90;;;;;;5017596;28;20040;-81
2023/05/03 00:29:59;;;;;;;1.95;0.50;;;8.50;99.90;;;;;;5014151;28;20025;-81
2023/05/03 00:32:24;;;;;;;2.25;0.70;;;8.50;99.90;;;;;;5016394;28;20040;-80
2023/05/03 00:34:57;;;;;;;3.58;0.70;;;8.50;99.90;;;;;;5017366;28;20053;-81
2023/05/03 00:37:25;;;;;;;2.00;0.80;;;8.50;99.90;;;;;;5019740;28;20072;-81
2023/05/03 00:39:51;;;;;;;3.63;0.70;;;8.40;99.90;;;;;;5017094;28;20936;-81
2023/05/03 00:42:16;;;;;;;4.15;0.77;;;8.30;99.90;;;;;;5017627;28;20590;-80
2023/05/03 00:44:42;;;;;;;1.77;0.50;;;8.20;99.90;;;;;;5017460;28;20083;-81
2023/05/03 00:47:08;;;;;;;1.58;0.50;;;8.20;99.90;;;;;;5016144;28;20049;-81
2023/05/03 00:49:34;;;;;;;1.23;0.55;;;8.30;99.90;;;;;;5017346;28;20037;-81
2023/05/03 00:52:00;;;;;;;0.80;0.40;;;8.30;99.90;;;;;;5017156;28;20076;-80
2023/05/03 00:54:28;;;;;;;1.13;0.57;;;8.30;99.90;;;;;;5022340;28;20122;-80
2023/05/03 00:56:55;;;;;;;2.03;0.60;;;8.30;99.90;;;;;;5016513;28;20048;-80
2023/05/03 00:59:21;;;;;;;1.75;0.60;;;8.30;99.90;;;;;;5015963;28;20053;-80
2023/05/03 01:01:51;;;;;;;1.33;0.57;;;8.20;99.90;;;;;;5017344;28;20025;-81
2023/05/03 01:04:19;;;;;;;2.40;0.80;;;8.10;99.90;;;;;;5016770;28;20031;-81
2023/05/03 01:06:57;;;;;;;2.50;0.73;;;8.10;99.90;;;;;;5016467;28;20446;-81
2023/05/03 01:09:31;;;;;;;2.00;0.73;;;8.00;99.90;;;;;;5018655;28;20037;-80
2023/05/03 01:12:28;;;;;;;1.75;0.60;;;8.00;99.90;;;;;;5017899;28;20076;-81
2023/05/03 01:15:09;;;;;;;2.55;0.40;;;8.00;99.90;;;;;;5014812;28;20030;-79
2023/05/03 01:17:40;;;;;;;1.63;0.50;;;8.00;99.90;;;;;;5016114;28;20029;-80
2023/05/03 01:20:12;;;;;;;2.13;0.60;;;8.00;99.90;;;;;;5016049;28;20071;-79
2023/05/03 01:22:57;;;;;;;1.52;0.60;;;8.00;99.90;;;;;;5014730;28;20577;-80
2023/05/03 01:25:23;;;;;;;1.40;0.60;;;7.90;99.90;;;;;;5017707;28;20031;-78
2023/05/03 01:27:49;;;;;;;3.58;0.85;;;7.90;99.90;;;;;;5018032;28;20395;-79
2023/05/03 01:30:15;;;;;;;1.70;0.90;;;7.90;99.90;;;;;;5024872;28;20033;-78
2023/05/03 01:33:12;;;;;;;1.17;0.57;;;7.80;99.90;;;;;;5014825;28;20044;-79
2023/05/03 01:35:46;;;;;;;2.13;0.60;;;7.80;99.90;;;;;;5015593;28;20766;-79
2023/05/03 01:38:12;;;;;;;1.50;0.60;;;7.90;99.90;;;;;;5016331;28;20018;-81
2023/05/03 01:40:46;;;;;;;3.40;0.70;;;8.00;99.90;;;;;;5014730;28;20025;-79
2023/05/03 01:43:14;;;;;;;1.98;0.80;;;8.00;99.90;;;;;;5017303;28;20029;-80
2023/05/03 01:45:41;;;;;;;1.85;0.60;;;7.90;99.90;;;;;;5014767;28;20029;-80
2023/05/03 01:48:15;;;;;;;2.50;0.80;;;7.80;99.90;;;;;;5015994;28;20091;-79
2023/05/03 01:50:42;;;;;;;2.47;0.68;;;7.70;99.90;;;;;;5016482;28;20117;-78
2023/05/03 01:53:07;;;;;;;1.92;0.80;;;7.70;99.90;;;;;;5014660;28;20060;-79
2023/05/03 01:55:33;;;;;;;2.35;0.70;;;7.70;99.90;;;;;;5030413;28;20105;-80
2023/05/03 01:57:58;;;;;;;2.38;0.88;;;7.60;99.90;;;;;;5016769;28;22267;-80
2023/05/03 02:00:24;;;;;;;1.98;0.73;;;7.60;99.90;;;;;;5013685;28;20038;-79
2023/05/03 02:02:50;;;;;;;2.80;0.80;;;7.60;99.90;;;;;;5013525;28;20155;-80
2023/05/03 02:05:16;;;;;;;2.40;0.82;;;7.50;99.90;;;;;;5014652;28;20025;-80
2023/05/03 02:07:41;;;;;;;2.75;0.75;;;7.50;99.90;;;;;;5015920;28;20041;-78
2023/05/03 02:10:07;;;;;;;1.67;0.80;;;7.60;99.90;;;;;;5014691;28;20054;-80
2023/05/03 02:12:33;;;;;;;5.03;1.20;;;7.50;99.90;;;;;;5016426;28;20029;-80
2023/05/03 02:15:00;;;;;;;4.18;0.93;;;7.50;99.90;;;;;;5016578;28;20388;-79
2023/05/03 02:17:25;;;;;;;3.33;1.00;;;7.50;99.90;;;;;;5012883;28;20785;-79
2023/05/03 02:19:51;;;;;;;2.45;0.80;;;7.40;99.90;;;;;;5014526;28;20030;-80
2023/05/03 02:22:17;;;;;;;1.55;0.80;;;7.40;99.90;;;;;;5015607;28;20135;-80
2023/05/03 02:24:42;;;;;;;4.07;0.82;;;7.30;99.90;;;;;;5014644;28;20041;-79
2023/05/03 02:27:08;;;;;;;3.13;0.90;;;7.40;99.90;;;;;;5013867;28;20049;-79
2023/05/03 02:29:34;;;;;;;3.35;1.27;;;7.20;99.90;;;;;;5016803;28;20513;-79
2023/05/03 02:31:59;;;;;;;2.80;0.98;;;7.20;99.90;;;;;;5014633;28;20028;-78
2023/05/03 02:34:26;;;;;;;2.58;0.98;;;7.30;99.90;;;;;;5012396;28;20037;-79
2023/05/03 02:36:52;;;;;;;2.08;1.00;;;7.20;99.90;;;;;;5014780;28;20026;-79
2023/05/03 02:39:18;;;;;;;3.13;1.00;;;7.30;99.90;;;;;;5015733;28;20021;-77
2023/05/03 02:41:43;;;;;;;1.52;0.73;;;7.30;99.90;;;;;;5015794;28;20034;-79
2023/05/03 02:44:09;;;;;;;2.03;0.80;;;7.30;99.90;;;;;;5016840;28;20506;-78
2023/05/03 02:46:34;;;;;;;1.50;0.80;;;7.30;99.90;;;;;;5014911;28;20120;-79
2023/05/03 02:49:00;;;;;;;1.85;0.70;;;7.40;99.90;;;;;;5014244;28;20045;-78
2023/05/03 02:51:26;;;;;;;1.42;0.70;;;7.40;99.90;;;;;;5013116;28;20034;-79
2023/05/03 02:53:51;;;;;;;0.90;0.52;;;7.50;99.90;;;;;;5014601;28;20091;-78
2023/05/03 02:56:17;;;;;;;2.28;1.00;;;7.50;99.90;;;;;;5016100;28;20025;-79
2023/05/03 02:58:42;;;;;;;3.95;0.70;;;7.40;99.90;;;;;;5016529;28;20049;-79
2023/05/03 03:01:09;;;;;;;1.85;0.70;;;7.40;99.90;;;;;;5014073;28;20096;-79
2023/05/03 03:03:35;;;;;;;1.63;0.77;;;7.40;99.90;;;;;;5013408;28;20033;-79
2023/05/03 03:06:00;;;;;;;1.92;0.65;;;7.40;99.90;;;;;;5014816;28;20075;-79
2023/05/03 03:08:26;;;;;;;1.83;0.63;;;7.30;99.90;;;;;;5028486;28;20049;-78
2023/05/03 03:10:52;;;;;;;1.85;0.80;;;7.30;99.90;;;;;;5014848;28;20399;-79
2023/05/03 03:13:17;;;;;;;1.08;0.50;;;7.30;99.90;;;;;;5014722;28;20112;-79
2023/05/03 03:15:43;;;;;;;3.55;0.73;;;7.30;99.90;;;;;;5019043;28;20475;-79
2023/05/03 03:18:08;;;;;;;2.55;0.90;;;7.30;99.90;;;;;;5013604;28;20061;-80
2023/05/03 03:20:34;;;;;;;2.72;1.10;;;7.30;99.90;;;;;;5013648;28;20025;-81
2023/05/03 03:23:00;;;;;;;1.45;0.50;;;7.30;99.90;;;;;;5014373;28;20033;-81
2023/05/03 03:25:25;;;;;;;1.30;0.52;;;7.30;99.90;;;;;;5013573;28;20049;-80
2023/05/03 03:27:51;;;;;;;2.13;0.70;;;7.30;99.90;;;;;;5015485;28;20037;-80
2023/05/03 03:30:16;;;;;;;1.77;0.70;;;7.20;99.90;;;;;;5014226;28;20108;-81
2023/05/03 03:32:42;;;;;;;1.15;0.50;;;7.20;99.90;;;;;;5013824;28;20050;-80
2023/05/03 03:35:09;;;;;;;2.47;0.70;;;7.10;99.90;;;;;;5014172;28;20033;-80
2023/05/03 03:37:34;;;;;;;2.50;0.90;;;7.00;99.90;;;;;;5013788;28;20574;-80
2023/05/03 03:40:00;;;;;;;1.80;0.73;;;7.00;99.90;;;;;;5014326;28;20471;-81
2023/05/03 03:42:25;;;;;;;2.28;0.60;;;6.90;99.90;;;;;;5014951;28;20505;-80
2023/05/03 03:44:51;;;;;;;2.03;0.70;;;6.90;99.90;;;;;;5014092;28;20448;-80
2023/05/03 03:47:16;;;;;;;1.73;0.77;;;6.90;99.90;;;;;;5012857;28;20475;-80
2023/05/03 03:49:42;;;;;;;1.33;0.70;;;6.70;99.90;;;;;;5013582;28;20046;-80
2023/05/03 03:52:08;;;;;;;2.10;0.75;;;6.60;99.90;;;;;;5012344;28;20598;-79
2023/05/03 03:54:34;;;;;;;3.10;0.80;;;6.50;99.90;;;;;;5013192;28;20044;-79
2023/05/03 03:57:01;;;;;;;1.35;0.70;;;6.50;99.90;;;;;;5014285;28;20022;-80
2023/05/03 03:59:29;;;;;;;1.70;0.82;;;6.50;99.90;;;;;;5013821;28;20080;-81
2023/05/03 04:01:54;;;;;;;1.58;1.10;;;6.60;99.90;;;;;;5013525;28;20192;-80
2023/05/03 04:04:20;;;;;;;3.40;1.00;;;6.70;99.90;;;;;;5013062;28;20101;-81
2023/05/03 04:06:46;;;;;;;2.05;1.00;;;6.70;99.90;;;;;;5013664;28;20033;-79
2023/05/03 04:09:13;;;;;;;3.17;1.00;;;6.70;99.90;;;;;;5012367;28;20100;-77
2023/05/03 04:11:39;;;;;;;2.20;0.75;;;6.60;99.90;;;;;;5013079;28;20518;-79
2023/05/03 04:14:05;;;;;;;1.85;0.93;;;6.60;99.90;;;;;;5013273;28;20039;-79
2023/05/03 04:16:30;;;;;;;2.42;0.85;;;6.60;99.90;;;;;;5013065;28;20029;-79
2023/05/03 04:18:56;;;;;;;1.20;0.90;;;6.60;99.90;;;;;;5013296;28;20057;-79
2023/05/03 04:21:21;;;;;;;1.80;0.93;;;6.60;99.90;;;;;;5012649;28;20130;-78
2023/05/03 04:23:47;;;;;;;2.70;0.82;;;6.60;99.90;;;;;;5014369;28;20033;-79
2023/05/03 04:26:12;;;;;;;1.75;1.00;;;6.60;99.90;;;;;;5013752;28;20026;-80
2023/05/03 04:28:38;;;;;;;1.67;0.80;;;6.60;99.90;;;;;;5013098;28;20083;-80
2023/05/03 04:31:05;;;;;;;1.35;0.90;;;6.50;99.90;;;;;;5014510;28;20049;-79
2023/05/03 04:33:30;;;;;;;2.72;0.75;;;6.50;99.90;;;;;;5010587;28;20087;-79
2023/05/03 04:35:56;;;;;;;1.58;0.90;;;6.60;99.90;;;;;;5013682;28;20037;-79
2023/05/03 04:38:22;;;;;;;3.08;0.90;;;6.60;99.90;;;;;;5013144;28;20471;-78
2023/05/03 04:40:48;;;;;;;2.08;0.73;;;6.60;99.90;;;;;;5013220;28;20093;-79
2023/05/03 04:43:14;;;;;;;1.48;0.80;;;6.50;99.90;;;;;;5016586;28;20030;-79
2023/05/03 04:45:40;;;;;;;2.05;0.90;;;6.60;99.90;;;;;;5018393;28;20527;-80
2023/05/03 04:48:06;;;;;;;1.27;0.65;;;6.60;99.90;;;;;;5014887;28;20034;-79
2023/05/03 04:50:32;;;;;;;1.30;0.93;;;6.60;99.90;;;;;;5013805;28;20025;-79
2023/05/03 04:52:58;;;;;;;1.67;0.85;;;6.70;99.90;;;;;;5014958;28;20025;-79
2023/05/03 04:55:24;;;;;;;1.00;0.70;;;6.70;99.90;;;;;;5015489;28;20083;-79
2023/05/03 04:57:49;;;;;;;2.42;0.90;;;6.60;99.90;;;;;;5017116;28;20172;-78
2023/05/03 05:00:15;;;;;;;2.90;1.10;;;6.70;99.90;;;;;;5015677;28;20064;-78
2023/05/03 05:02:41;;;;;;;1.80;1.00;;;6.60;99.90;;;;;;5018369;28;20049;-81
2023/05/03 05:05:08;;;;;;;2.92;1.00;;;6.60;99.90;;;;;;5014756;28;20034;-79
2023/05/03 05:07:33;;;;;;;2.25;0.88;;;6.60;99.90;;;;;;5013592;28;20060;-81
2023/05/03 05:09:59;;;;;;;3.22;1.00;;;6.60;99.90;;;;;;5014203;28;20733;-78
2023/05/03 05:12:26;;;;;;;4.25;1.17;;;6.70;99.90;;;;;;5016216;28;20120;-81
2023/05/03 05:14:51;;;;;;;2.80;1.00;;;6.70;99.90;;;;;;5016777;28;20033;-79
2023/05/03 05:17:17;;;;;;;2.10;0.90;;;6.70;99.90;;;;;;5012525;28;20485;-80
2023/05/03 05:19:43;;;;;;;3.80;1.10;;;6.70;99.90;;;;;;5013917;28;20029;-81
2023/05/03 05:22:09;;;;;;;3.28;1.00;;;6.70;99.90;;;;;;5014888;28;20170;-81
2023/05/03 05:24:35;;;;;;;3.80;1.27;;;6.80;99.90;;;;;;5019966;28;20049;-79
2023/05/03 05:27:02;;;;;;;3.05;0.95;;;6.70;99.90;;;;;;5015160;28;20029;-80
2023/05/03 05:29:28;;;;;;;3.20;1.00;;;6.70;99.90;;;;;;5015550;28;20042;-80
2023/05/03 05:31:53;;;;;;;2.53;1.00;;;6.80;99.90;;;;;;5016858;28;20446;-80
2023/05/03 05:34:19;;;;;;;3.28;1.38;;;6.80;99.90;;;;;;5014066;28;20592;-80
2023/05/03 05:36:45;;;;;;;2.50;1.20;;;6.90;99.90;;;;;;5014234;28;20022;-79
2023/05/03 05:39:10;;;;;;;2.00;0.93;;;6.90;99.90;;;;;;5030069;28;20029;-79
2023/05/03 05:41:36;;;;;;;2.72;1.17;;;7.00;99.90;;;;;;5014209;28;20033;-80
2023/05/03 05:44:02;;;;;;;1.98;0.70;;;7.00;99.90;;;;;;5015621;28;20030;-80
2023/05/03 05:46:28;;;;;;;3.17;1.00;;;7.00;99.90;;;;;;5016241;28;20096;-80
2023/05/03 05:48:53;;;;;;;2.83;0.88;;;7.00;99.90;;;;;;5012480;28;20042;-80
2023/05/03 05:51:19;;;;;;;1.15;0.70;;;7.10;99.90;;;;;;5013114;28;20030;-80
2023/05/03 05:53:44;;;;;;;1.77;1.02;;;7.10;99.90;;;;;;5014019;28;20070;-81
2023/05/03 05:56:10;;;;;;;1.30;0.88;;;7.10;99.90;;;;;;5019385;28;20049;-79
2023/05/03 05:58:40;;;;;;;5.18;1.33;;;7.20;99.90;;;;;;5014504;28;20034;-80
2023/05/03 06:01:06;;;;;;;3.67;0.90;;;7.20;99.90;;;;;;5016448;28;20033;-78
2023/05/03 06:03:32;;;;;;;2.67;0.90;;;7.30;99.90;;;;;;5013413;28;20036;-80
2023/05/03 06:05:58;;;;;;;2.05;0.93;;;7.30;99.90;;;;;;5012653;28;20040;-80
2023/05/03 06:08:23;;;;;;;2.70;1.17;;;7.30;99.90;;;;;;5014748;28;20045;-80
2023/05/03 06:10:51;;;;;;;3.25;1.15;;;7.40;99.90;;;;;;5015558;28;20160;-80
2023/05/03 06:13:17;;;;;;;2.22;1.13;;;7.40;99.90;;;;;;5026626;28;20029;-80
2023/05/03 06:15:43;;;;;;;3.28;1.40;;;7.50;99.90;;;;;;5013429;28;20028;-79
2023/05/03 06:18:09;;;;;;;2.15;1.00;;;7.50;99.90;;;;;;5022716;28;20033;-80
2023/05/03 06:20:34;;;;;;;3.75;1.10;;;7.60;99.90;;;;;;5011072;28;20042;-80
2023/05/03 06:23:00;;;;;;;2.05;0.90;;;7.60;99.90;;;;;;5011011;28;20396;-80
2023/05/03 06:25:26;;;;;;;1.08;0.80;;;7.60;99.90;;;;;;5010134;28;20091;-79
2023/05/03 06:27:51;;;;;;;2.95;1.00;;;7.70;99.90;;;;;;5016415;28;20033;-79
2023/05/03 06:30:17;;;;;;;2.25;0.90;;;7.80;99.90;;;;;;5012115;28;20045;-80
2023/05/03 06:32:46;;;;;;;2.55;0.88;;;7.80;99.90;;;;;;5011817;28;20034;-80
2023/05/03 06:35:11;;;;;;;2.28;0.82;;;7.90;99.90;;;;;;5011036;28;20124;-80
2023/05/03 06:37:37;;;;;;;2.90;1.15;;;7.90;99.90;;;;;;5011779;28;20029;-81
2023/05/03 06:40:04;;;;;;;2.63;1.00;;;7.90;99.90;;;;;;5014239;28;20037;-80
2023/05/03 06:42:31;;;;;;;3.40;1.40;;;8.00;99.90;;;;;;5017681;28;20025;-80
2023/05/03 06:44:57;;;;;;;2.97;1.15;;;8.00;99.90;;;;;;5018676;28;20043;-80
2023/05/03 06:47:22;;;;;;;2.00;0.93;;;8.00;99.90;;;;;;5014920;28;20033;-79
2023/05/03 06:49:48;;;;;;;2.60;1.05;;;8.10;99.90;;;;;;5012903;28;20034;-80
2023/05/03 06:52:13;;;;;;;1.38;0.70;;;8.10;99.90;;;;;;5010162;28;20553;-81
2023/05/03 06:54:39;;;;;;;2.08;0.60;;;8.20;99.90;;;;;;5010270;28;20080;-79
2023/05/03 06:57:06;;;;;;;2.65;1.15;;;8.20;99.90;;;;;;5013524;28;20451;-79
2023/05/03 06:59:32;;;;;;;2.45;0.85;;;8.20;99.90;;;;;;5014301;28;20022;-78
2023/05/03 07:01:59;;;;;;;3.33;1.00;;;8.20;99.90;;;;;;5014356;28;20455;-78
2023/05/03 07:04:24;;;;;;;3.20;1.20;;;8.30;99.90;;;;;;5011556;28;21051;-78
2023/05/03 07:06:50;;;;;;;5.32;2.22;;;8.30;99.90;;;;;;5013908;28;20032;-80
2023/05/03 07:09:16;;;;;;;2.60;1.10;;;8.30;99.90;;;;;;5013014;28;20197;-80
2023/05/03 07:11:48;;;;;;;4.90;1.48;;;8.30;99.90;;;;;;5022669;28;20068;-80
2023/05/03 07:14:14;;;;;;;3.78;1.17;;;8.30;99.90;;;;;;5014218;28;20053;-79
2023/05/03 07:16:40;;;;;;;2.38;0.93;;;8.40;99.90;;;;;;5017659;28;20065;-80
2023/05/03 07:19:06;;;;;;;2.65;1.00;;;8.40;99.90;;;;;;5013134;28;20073;-79
2023/05/03 07:21:32;;;;;;;3.35;1.05;;;8.40;99.90;;;;;;5011260;28;20589;-77
2023/05/03 07:23:58;;;;;;;3.58;0.80;;;8.50;99.90;;;;;;5012663;28;20026;-79
2023/05/03 07:26:25;;;;;;;1.83;1.20;;;8.60;99.90;;;;;;5011430;28;20037;-78
2023/05/03 07:28:51;;;;;;;1.67;0.70;;;8.60;99.90;;;;;;4995881;28;20041;-79
2023/05/03 07:31:16;;;;;;;3.42;1.00;;;8.60;99.90;;;;;;5013687;28;20036;-80
2023/05/03 07:33:42;;;;;;;3.13;0.90;;;8.70;99.90;;;;;;5016533;28;20113;-79
2023/05/03 07:36:08;;;;;;;3.38;0.90;;;8.70;99.90;;;;;;5011239;28;20623;-79
2023/05/03 07:38:33;;;;;;;5.50;1.00;;;8.70;99.90;;;;;;5013244;28;22375;-77
2023/05/03 07:40:59;;;;;;;4.05;1.30;;;8.80;99.90;;;;;;5010758;28;20073;-79
2023/05/03 07:43:24;;;;;;;2.35;0.93;;;8.80;99.90;;;;;;5011963;28;20606;-78
2023/05/03 07:45:50;;;;;;;2.92;1.00;;;8.90;99.90;;;;;;5012749;28;20351;-79
2023/05/03 07:48:15;;;;;;;3.38;1.20;;;9.00;99.90;;;;;;5010828;28;20041;-79
2023/05/03 07:50:43;;;;;;;5.40;1.38;;;9.00;99.90;;;;;;5010937;28;20025;-79
2023/05/03 07:53:09;;;;;;;2.22;1.17;;;9.10;99.90;;;;;;5012745;28;20026;-79
2023/05/03 07:55:35;;;;;;;3.80;1.17;;;9.10;99.90;;;;;;5013028;28;20040;-79
2023/05/03 07:58:02;;;;;;;3.88;1.20;;;9.10;99.90;;;;;;5013366;28;20120;-78
2023/05/03 08:00:28;;;;;;;1.67;0.88;;;9.20;99.90;;;;;;5013132;28;20482;-80
2023/05/03 08:02:53;;;;;;;2.55;1.30;;;9.20;99.90;;;;;;5012861;28;20088;-79
2023/05/03 08:05:19;;;;;;;1.65;0.93;;;9.20;99.90;;;;;;5011967;28;20022;-80
2023/05/03 08:07:44;;;;;;;3.17;0.90;;;9.30;99.90;;;;;;5012316;28;20046;-78
2023/05/03 08:10:10;;;;;;;2.53;1.10;;;9.40;99.90;;;;;;5016850;28;20041;-78
2023/05/03 08:12:37;;;;;;;3.45;1.10;;;9.50;99.90;;;;;;5009193;28;20176;-78
2023/05/03 08:15:05;;;;;;;4.20;0.90;;;9.50;99.90;;;;;;5011717;28;20022;-78
2023/05/03 08:17:31;;;;;;;4.93;1.83;;;9.50;99.90;;;;;;5017068;28;20072;-79
2023/05/03 08:19:57;;;;;;;3.85;1.17;;;9.60;99.90;;;;;;5030797;28;20519;-80
2023/05/03 08:22:25;;;;;;;2.42;0.93;;;9.70;99.90;;;;;;5014509;28;20033;-79
2023/05/03 08:24:52;;;;;;;3.45;0.82;;;9.70;99.90;;;;;;5015347;28;20549;-80
2023/05/03 08:27:18;;;;;;;3.53;1.20;;;9.70;99.90;;;;;;5030652;28;20502;-78
2023/05/03 08:29:43;;;;;;;3.78;1.00;;;9.80;99.90;;;;;;5017422;28;20105;-78
2023/05/03 08:32:09;;;;;;;3.25;0.93;;;9.80;99.90;;;;;;5018672;28;20053;-79
2023/05/03 08:34:35;;;;;;;3.08;1.02;;;9.90;99.90;;;;;;5030343;28;20564;-80
2023/05/03 08:37:03;;;;;;;5.22;0.80;;;9.90;99.90;;;;;;5015825;28;20026;-79
2023/05/03 08:39:30;;;;;;;4.85;1.10;;;10.00;99.90;;;;;;5015143;28;20033;-79
2023/05/03 08:41:56;;;;;;;4.00;1.10;;;10.00;99.90;;;;;;5016107;28;20914;-78
2023/05/03 08:44:23;;;;;;;5.25;1.10;;;10.10;99.90;;;;;;5015925;28;20104;-78
2023/05/03 08:46:49;;;;;;;2.53;0.85;;;10.10;99.90;;;;;;5017982;28;20775;-79
2023/05/03 08:49:20;;;;;;;2.33;0.70;;;10.30;99.90;;;;;;5014955;28;20080;-78
2023/05/03 08:51:48;;;;;;;3.55;0.88;;;10.30;99.90;;;;;;5015498;28;20028;-79
2023/05/03 08:54:19;;;;;;;3.15;1.00;;;10.40;99.90;;;;;;5015200;28;20056;-79
2023/05/03 08:56:46;;;;;;;3.58;1.10;;;10.50;99.90;;;;;;5018399;28;20075;-76
2023/05/03 08:59:12;;;;;;;3.78;1.02;;;10.60;99.90;;;;;;5015488;28;20025;-78
2023/05/03 09:01:39;;;;;;;1.70;0.93;;;10.70;99.90;;;;;;5016485;28;20025;-78
2023/05/03 09:04:05;;;;;;;3.38;1.08;;;10.80;99.90;;;;;;5003451;28;20071;-78
2023/05/03 09:06:32;;;;;;;2.85;1.05;;;10.80;99.90;;;;;;5014784;28;20152;-79
2023/05/03 09:08:58;;;;;;;2.20;1.10;;;10.90;99.90;;;;;;5013341;28;20643;-80
2023/05/03 09:11:28;;;;;;;3.22;1.10;;;11.00;99.90;;;;;;5015734;28;20041;-80
2023/05/03 09:14:14;;;;;;;2.53;1.05;;;11.10;99.90;;;;;;5015842;28;20071;-79
2023/05/03 09:16:43;;;;;;;3.25;0.95;;;11.20;99.90;;;;;;5016461;28;20121;-78
2023/05/03 09:19:11;;;;;;;5.25;1.20;;;11.20;99.90;;;;;;5015129;28;20033;-79
2023/05/03 09:21:38;;;;;;;3.17;1.00;;;11.30;99.90;;;;;;5014942;28;20022;-78
2023/05/03 09:24:20;;;;;;;2.80;1.30;;;11.40;99.90;;;;;;5014609;28;20025;-78
2023/05/03 09:26:49;;;;;;;2.97;1.30;;;11.50;99.90;;;;;;5015059;28;20029;-77
2023/05/03 09:29:33;;;;;;;2.80;1.27;;;11.60;99.90;;;;;;5014894;28;20590;-80
2023/05/03 09:31:59;;;;;;;;;;;11.80;99.90;;;;;;5016018;28;20039;-79
2023/05/03 09:34:25;;;;;;;1.95;0.90;;;12.30;99.90;;;;;;5029178;28;19917;-79
2023/05/03 09:36:51;;;;;;;3.63;1.00;;;13.50;99.90;;;;;;5015103;28;20364;-80
2023/05/03 09:39:18;;;;;;;2.70;1.20;;;14.80;99.90;;;;;;5014315;28;20545;-78
2023/05/03 09:41:43;;;;;;;2.58;0.88;;;15.90;99.90;;;;;;5013907;28;20427;-79
2023/05/03 09:44:09;;;;;;;3.10;1.13;;;16.80;99.90;;;;;;5015849;28;20034;-80
2023/05/03 09:46:36;;;;;;;2.92;1.00;;;17.30;99.90;;;;;;5014619;28;20068;-80
2023/05/03 09:49:03;;;;;;;2.25;0.90;;;17.90;99.90;;;;;;5015840;28;20046;-79
2023/05/03 09:51:28;;;;;;;1.75;0.60;;;18.40;99.90;;;;;;5014599;28;20374;-78
2023/05/03 09:53:55;;;;;;;1.15;0.70;;;18.70;99.90;;;;;;5013542;28;20021;-79
2023/05/03 09:56:25;;;;;;;3.10;1.00;;;19.20;99.70;;;;;;5014631;28;20103;-79
2023/05/03 09:58:51;;;;;;;4.95;1.10;;;19.70;99.20;;;;;;5025903;28;20037;-78
2023/05/03 10:01:17;;;;;;;3.05;0.90;;;19.80;98.00;;;;;;5014570;28;20029;-78
2023/05/03 10:03:51;;;;;;;1.30;0.65;;;20.00;98.20;;;;;;5014090;28;20025;-77
2023/05/03 10:06:22;;;;;;;;;;;20.20;97.50;;;;;;5011821;28;20022;-79
2023/05/03 10:08:53;;;;;;;3.35;0.93;;;20.20;96.80;;;;;;5010797;28;19925;-80
2023/05/03 10:11:22;;;;;;;10.52;1.60;;;20.40;96.40;;;;;;5012186;28;20151;-79
2023/05/03 10:13:48;;;;;;;12.60;2.25;;;20.60;96.20;;;;;;5012848;28;20029;-81
2023/05/03 10:16:19;;;;;;;7.80;1.25;;;20.80;95.90;;;;;;5013481;28;20484;-81
2023/05/03 10:19:13;;;;;;;3.25;0.80;;;21.10;95.40;;;;;;5012561;28;20037;-82
2023/05/03 10:21:41;;;;;;;4.38;1.30;;;21.70;95.20;;;;;;5011669;28;20894;-80
2023/05/03 10:24:15;;;;;;;10.80;1.58;;;21.70;93.80;;;;;;5007700;28;20029;-79
2023/05/03 10:26:43;;;;;;;3.13;0.80;;;21.70;93.50;;;;;;5011358;28;20033;-80
2023/05/03 10:29:47;;;;;;;3.03;0.90;;;21.80;93.30;;;;;;5011973;28;20040;-80
2023/05/03 10:32:41;;;;;;;2.55;1.00;;;22.20;92.90;;;;;;5010283;28;20030;-79
2023/05/03 10:35:15;;;;;;;3.05;0.95;;;22.50;92.80;;;;;;5028005;28;20033;-77
2023/05/03 10:37:42;;;;;;;3.22;0.80;;;22.70;91.60;;;;;;5012475;28;20029;-78
2023/05/03 10:40:16;;;;;;;6.85;1.25;;;22.70;91.70;;;;;;5010756;28;20436;-77
2023/05/03 10:42:49;;;;;;;2.78;0.95;;;22.70;91.00;;;;;;5013510;28;20060;-78
2023/05/03 10:45:28;;;;;;;3.03;1.00;;;22.60;90.60;;;;;;5011871;28;20037;-76
2023/05/03 10:48:11;;;;;;;2.13;1.00;;;22.70;89.00;;;;;;5013502;28;20044;-77
2023/05/03 10:50:38;;;;;;;1.38;0.70;;;22.60;88.60;;;;;;5013571;28;20475;-77
2023/05/03 10:53:03;;;;;;;2.47;0.63;;;22.80;89.50;;;;;;5013964;28;22515;-77
2023/05/03 10:55:29;;;;;;;3.33;0.90;;;23.20;89.50;;;;;;5013207;28;20030;-78
2023/05/03 10:57:59;;;;;;;2.17;0.80;;;23.40;88.40;;;;;;5013342;28;20394;-79
2023/05/03 11:00:43;;;;;;;4.50;1.00;;;23.70;87.40;;;;;;5013226;28;20125;-79
2023/05/03 11:03:22;;;;;;;2.97;1.00;;;23.80;86.10;;;;;;5011101;28;20067;-81
2023/05/03 11:05:48;;;;;;;2.47;0.88;;;23.80;85.70;;;;;;5012096;28;20037;-81
2023/05/03 11:08:19;;;;;;;2.40;0.70;;;23.90;85.50;;;;;;5027651;28;20068;-79
2023/05/03 11:10:45;;;;;;;1.95;0.60;;;23.80;84.50;;;;;;5013952;28;20041;-81
2023/05/03 11:13:12;;;;;;;1.55;0.80;;;23.80;84.40;;;;;;5014458;28;20022;-81
2023/05/03 11:15:38;;;;;;;3.05;0.80;;;24.00;85.10;;;;;;5028064;28;20033;-80
2023/05/03 11:18:07;;;;;;;3.03;0.82;;;24.00;84.60;;;;;;5012940;28;20031;-81
2023/05/03 11:20:32;;;;;;;2.25;0.75;;;23.90;84.80;;;;;;5012775;28;20125;-81
2023/05/03 11:22:58;;;;;;;1.70;0.70;;;24.00;85.20;;;;;;5012886;28;20033;-79
2023/05/03 11:25:23;;;;;;;1.92;0.70;;;24.10;84.50;;;;;;5011983;28;20758;-79
2023/05/03 11:27:49;;;;;;;3.17;0.80;;;24.20;84.30;;;;;;5014694;28;20037;-82
2023/05/03 11:30:15;;;;;;;2.88;0.75;;;24.10;84.10;;;;;;5026400;28;20099;-80
2023/05/03 11:32:42;;;;;;;3.05;1.08;;;24.00;84.50;;;;;;5028139;28;20475;-81
2023/05/03 11:35:11;;;;;;;2.67;0.82;;;23.90;82.90;;;;;;5013810;28;20040;-81
2023/05/03 11:37:36;;;;;;;3.22;1.08;;;23.80;82.80;;;;;;5012103;28;20037;-81
2023/05/03 11:40:03;;;;;;;3.33;0.80;;;23.90;80.90;;;;;;5014055;28;20029;-80
2023/05/03 11:42:29;;;;;;;3.15;0.93;;;23.80;81.30;;;;;;5013517;28;20028;-77
2023/05/03 11:44:55;;;;;;;3.63;1.00;;;24.00;81.10;;;;;;5012004;28;20033;-82
2023/05/03 11:47:21;;;;;;;3.65;0.90;;;23.80;80.00;;;;;;5012730;28;20474;-79
2023/05/03 11:49:54;;;;;;;1.88;0.90;;;23.60;81.30;;;;;;5012436;28;20018;-82
2023/05/03 11:52:22;;;;;;;2.17;0.63;;;23.80;80.40;;;;;;5009965;28;20143;-82
2023/05/03 11:54:48;;;;;;;2.35;0.70;;;24.00;80.50;;;;;;5013036;28;20026;-78
2023/05/03 11:57:15;;;;;;;5.60;0.80;;;24.30;80.50;;;;;;5014284;28;20071;-81
2023/05/03 11:59:43;;;;;;;3.45;1.00;;;24.60;79.80;;;;;;5011748;28;20033;-81
2023/05/03 12:02:11;;;;;;;2.05;0.90;;;24.70;80.40;;;;;;5009690;28;20105;-80
2023/05/03 12:04:40;;;;;;;2.60;0.95;;;24.50;80.30;;;;;;5026958;28;20192;-81
2023/05/03 12:07:06;;;;;;;2.40;0.93;;;24.30;79.80;;;;;;5012055;28;20151;-80
2023/05/03 12:09:32;;;;;;;2.95;1.10;;;24.30;81.00;;;;;;5013775;28;20045;-80
2023/05/03 12:11:59;;;;;;;1.73;0.82;;;24.40;79.40;;;;;;5011465;28;20026;-79
2023/05/03 12:14:25;;;;;;;2.40;0.90;;;24.60;79.40;;;;;;5011289;28;20033;-82
2023/05/03 12:16:53;;;;;;;2.83;0.80;;;24.80;79.40;;;;;;5011599;28;22307;-83
2023/05/03 12:19:29;;;;;;;3.20;0.93;;;25.00;79.80;;;;;;5009772;28;20096;-80
2023/05/03 12:21:55;;;;;;;4.15;1.00;;;25.00;79.90;;;;;;5012103;28;20087;-81
2023/05/03 12:24:22;;;;;;;4.28;0.90;;;24.90;78.30;;;;;;5011924;28;20133;-81
2023/05/03 12:26:48;;;;;;;2.17;0.90;;;25.00;78.00;;;;;;5010426;28;20503;-80
2023/05/03 12:29:23;;;;;;;1.67;0.80;;;25.30;76.70;;;;;;5009470;28;20064;-80
2023/05/03 12:31:49;;;;;;;3.45;0.77;;;25.40;76.10;;;;;;5011893;28;20108;-78
2023/05/03 12:34:17;;;;;;;3.78;0.80;;;25.30;76.50;;;;;;5010689;28;20130;-80
2023/05/03 12:36:43;;;;;;;2.33;0.98;;;25.20;76.00;;;;;;5011855;28;20037;-82
2023/05/03 12:39:09;;;;;;;3.83;0.90;;;25.30;76.20;;;;;;5015636;28;20479;-82
2023/05/03 12:41:37;;;;;;;3.38;1.00;;;25.60;76.10;;;;;;5025748;28;20442;-80
2023/05/03 12:44:03;;;;;;;2.35;0.75;;;25.70;74.90;;;;;;5011412;28;20053;-81
2023/05/03 12:46:29;;;;;;;3.20;0.70;;;25.70;75.10;;;;;;5011448;28;20108;-81
2023/05/03 12:48:54;;;;;;;3.08;0.90;;;25.60;74.70;;;;;;5010882;28;20060;-82
2023/05/03 12:51:20;;;;;;;2.70;0.90;;;25.50;75.90;;;;;;5012069;28;20026;-80
2023/05/03 12:53:46;;;;;;;1.48;0.80;;;25.10;77.50;;;;;;5013422;28;20030;-81